Time;durP1;ratioP1;P1;durP2;ratioP2;P2;SDS_P1;SDS_P2;PMS_P1;PMS_P2;Temp;Humidity;BMP_temperature;BMP_pressure;BME280_temperature;BME280_humidity;BME280_pressure;Samples;Min_cycle;Max_cycle;Signal;HPM_P1;HPM_P2
2022/03/17 00:00:07;;;;;;;11.13;8.18;;;;;;;12.55;56.80;101877.97;5098897;28;20047;-60
2022/03/17 00:02:35;;;;;;;10.80;8.15;;;;;;;12.54;56.70;101879.84;5102270;28;20067;-60
2022/03/17 00:05:04;;;;;;;13.55;8.07;;;;;;;12.53;57.02;101871.97;5101958;28;20473;-62
2022/03/17 00:07:33;;;;;;;10.20;7.15;;;;;;;12.54;56.73;101881.72;5101536;28;20052;-59
2022/03/17 00:10:01;;;;;;;14.10;8.35;;;;;;;12.53;56.77;101866.56;5102412;28;20079;-59
2022/03/17 00:12:28;;;;;;;9.48;7.68;;;;;;;12.54;56.74;101874.44;5095125;28;20079;-59
2022/03/17 00:14:56;;;;;;;11.20;7.65;;;;;;;12.52;56.96;101860.34;5102087;28;20048;-60
2022/03/17 00:17:25;;;;;;;10.32;8.02;;;;;;;12.51;57.09;101866.78;5092593;28;20063;-60
2022/03/17 00:19:53;;;;;;;10.48;7.90;;;;;;;12.50;56.88;101859.72;5101954;28;20048;-60
2022/03/17 00:22:21;;;;;;;11.48;7.93;;;;;;;12.51;57.09;101860.56;5099637;28;20071;-60
2022/03/17 00:24:50;;;;;;;10.70;7.85;;;;;;;12.49;56.98;101868.84;5102494;28;20044;-60
2022/03/17 00:27:18;;;;;;;11.32;8.10;;;;;;;12.48;56.89;101858.28;5098327;28;20067;-61
2022/03/17 00:29:46;;;;;;;11.25;8.18;;;;;;;12.45;57.16;101851.44;5102444;28;20055;-59
2022/03/17 00:32:14;;;;;;;12.60;7.90;;;;;;;12.46;56.77;101853.09;5102587;28;20055;-59
2022/03/17 00:37:24;;;;;;;11.32;7.72;;;;;;;12.46;57.21;101868.44;5100556;28;20052;-59
2022/03/17 00:39:54;;;;;;;11.90;8.05;;;;;;;12.45;57.12;101864.09;5102755;28;20051;-59
2022/03/17 00:42:22;;;;;;;12.82;7.63;;;;;;;12.45;57.03;101867.63;5093040;28;20052;-60
2022/03/17 00:44:52;;;;;;;10.88;7.70;;;;;;;12.44;57.19;101873.22;5102506;28;20052;-59
2022/03/17 00:47:20;;;;;;;11.05;7.93;;;;;;;12.45;57.20;101872.19;5098164;28;20123;-60
2022/03/17 00:49:48;;;;;;;10.27;7.50;;;;;;;12.43;56.94;101872.38;5089528;28;20052;-59
2022/03/17 00:52:20;;;;;;;13.77;8.15;;;;;;;12.43;57.13;101871.56;5104514;28;20048;-59
2022/03/17 00:54:47;;;;;;;11.23;8.32;;;;;;;12.42;57.22;101870.72;5102178;28;20079;-60
2022/03/17 00:57:17;;;;;;;11.88;7.72;;;;;;;12.42;57.20;101875.28;5102344;28;20083;-61
2022/03/17 00:59:44;;;;;;;12.95;8.10;;;;;;;12.41;57.37;101873.63;5097175;28;20072;-60
2022/03/17 01:02:12;;;;;;;13.57;7.88;;;;;;;12.39;57.09;101882.75;5102281;28;20205;-60
2022/03/17 01:04:40;;;;;;;11.65;8.23;;;;;;;12.39;57.25;101888.16;5105631;28;20048;-60
2022/03/17 01:07:08;;;;;;;12.70;8.27;;;;;;;12.39;57.07;101877.38;5101767;28;20084;-60
2022/03/17 01:09:37;;;;;;;10.90;7.68;;;;;;;12.39;57.23;101882.75;5105980;28;20051;-61
2022/03/17 01:12:05;;;;;;;12.38;7.75;;;;;;;12.39;57.33;101879.25;5101749;28;20087;-61
2022/03/17 01:14:34;;;;;;;11.25;8.25;;;;;;;12.38;57.30;101877.56;5105743;28;20092;-60
2022/03/17 01:17:02;;;;;;;11.30;8.07;;;;;;;12.38;57.25;101878.41;5105985;28;20127;-60
2022/03/17 01:19:29;;;;;;;10.80;8.07;;;;;;;12.30;56.99;101856.22;5105345;28;20484;-60
2022/03/17 01:21:57;;;;;;;12.05;8.63;;;;;;;12.38;57.32;101872.19;5104066;28;20058;-59
2022/03/17 01:24:25;;;;;;;14.35;8.88;;;;;;;12.38;57.34;101883.78;5105232;28;20051;-59
2022/03/17 01:26:53;;;;;;;12.23;7.70;;;;;;;12.38;57.43;101878.41;5098501;28;20048;-59
2022/03/17 01:29:23;;;;;;;11.70;8.70;;;;;;;12.38;57.37;101874.88;5100971;28;20040;-59
2022/03/17 01:31:52;;;;;;;11.70;8.63;;;;;;;12.38;57.38;101873.00;5102812;28;20055;-60
2022/03/17 01:34:20;;;;;;;11.60;9.02;;;;;;;12.37;57.58;101870.53;5102495;28;20078;-59
2022/03/17 01:36:48;;;;;;;11.55;8.70;;;;;;;12.37;57.30;101890.22;5103640;28;20075;-60
2022/03/17 01:39:15;;;;;;;11.43;7.90;;;;;;;12.34;57.39;101870.94;5100917;28;20097;-59
2022/03/17 01:41:43;;;;;;;10.35;7.65;;;;;;;12.36;57.38;101872.41;5101464;28;20097;-59
2022/03/17 01:44:11;;;;;;;12.52;8.27;;;;;;;12.35;57.63;101865.34;5104614;28;20059;-59
2022/03/17 01:49:22;;;;;;;12.30;8.50;;;;;;;12.32;57.71;101873.84;5099771;28;20078;-60
2022/03/17 01:51:49;;;;;;;11.63;8.07;;;;;;;12.34;57.62;101871.78;5104579;28;20071;-59
2022/03/17 01:54:19;;;;;;;12.10;8.45;;;;;;;12.34;57.65;101879.03;5104923;28;20074;-60
2022/03/17 01:57:06;;;;;;;12.00;8.02;;;;;;;12.33;57.53;101871.97;5104014;28;20062;-59
2022/03/17 01:59:35;;;;;;;12.80;9.35;;;;;;;12.31;57.70;101866.81;5105062;28;20084;-59
2022/03/17 02:02:05;;;;;;;13.25;8.32;;;;;;;12.31;57.55;101869.50;5105009;28;20048;-59
2022/03/17 02:04:35;;;;;;;10.82;7.93;;;;;;;12.33;57.69;101858.50;5097102;28;20048;-60
2022/03/17 02:07:05;;;;;;;12.13;7.80;;;;;;;12.33;57.60;101869.28;5093038;28;20059;-59
2022/03/17 02:09:34;;;;;;;14.48;8.35;;;;;;;12.33;57.87;101861.19;5104750;28;20056;-60
2022/03/17 02:14:51;;;;;;;12.13;8.88;;;;;;;12.31;57.88;101863.28;5100954;28;20048;-59
2022/03/17 02:17:19;;;;;;;13.15;8.57;;;;;;;12.29;58.05;101874.25;5102770;28;20083;-59
2022/03/17 02:19:50;;;;;;;12.63;8.52;;;;;;;12.19;57.95;101859.53;5101695;28;20055;-59
2022/03/17 02:22:21;;;;;;;12.30;8.30;;;;;;;12.25;57.93;101875.72;5099856;28;20124;-60
2022/03/17 02:27:41;;;;;;;11.32;8.57;;;;;;;12.28;58.00;101896.03;5099702;28;20044;-59
2022/03/17 02:30:11;;;;;;;9.98;7.57;;;;;;;12.26;58.18;101885.47;5104193;28;20123;-60
2022/03/17 02:32:40;;;;;;;11.15;8.00;;;;;;;12.17;58.21;101878.63;5101309;28;20075;-60
2022/03/17 02:35:12;;;;;;;11.15;8.20;;;;;;;12.27;58.15;101897.91;5103186;28;20068;-60
2022/03/17 02:37:40;;;;;;;11.90;8.40;;;;;;;12.27;58.29;101902.47;5102659;28;20543;-59
2022/03/17 02:40:12;;;;;;;14.15;8.50;;;;;;;12.26;58.37;101898.94;5102521;28;20087;-59
2022/03/17 02:42:40;;;;;;;13.10;8.68;;;;;;;12.27;58.24;101906.00;5099294;28;20087;-60
2022/03/17 02:45:10;;;;;;;12.52;9.32;;;;;;;12.17;58.53;101885.88;5103764;28;20078;-59
2022/03/17 02:47:39;;;;;;;13.07;8.75;;;;;;;12.26;58.44;101915.09;5099357;28;20055;-59
2022/03/17 02:50:10;;;;;;;11.35;8.40;;;;;;;12.27;58.70;101919.47;5101137;28;20074;-59
2022/03/17 02:52:38;;;;;;;16.08;9.43;;;;;;;12.27;58.36;101919.47;5103592;28;20040;-59
2022/03/17 02:55:08;;;;;;;13.43;9.18;;;;;;;12.26;58.60;101909.72;5102820;28;20059;-59
2022/03/17 02:57:37;;;;;;;13.43;10.02;;;;;;;12.27;58.97;101922.16;5097110;28;20075;-59
2022/03/17 03:00:07;;;;;;;15.70;9.38;;;;;;;12.28;59.31;101934.59;5090252;28;20048;-59
2022/03/17 03:02:35;;;;;;;17.08;10.68;;;;;;;12.27;59.81;101932.94;5099316;28;20082;-60
2022/03/17 03:05:04;;;;;;;18.80;12.73;;;;;;;12.25;60.10;101945.78;5097730;28;20097;-58
2022/03/17 03:07:32;;;;;;;17.88;12.38;;;;;;;12.29;60.83;101951.59;5098559;28;20051;-59
2022/03/17 03:10:00;;;;;;;19.38;13.32;;;;;;;12.26;62.50;101968.19;5102406;28;20052;-59
2022/03/17 03:12:27;;;;;;;24.15;12.88;;;;;;;12.25;63.25;101971.91;5097560;28;20079;-60
2022/03/17 03:14:56;;;;;;;21.83;14.40;;;;;;;12.24;64.66;101989.94;5102442;28;20051;-61
2022/03/17 03:17:25;;;;;;;19.50;13.20;;;;;;;12.23;65.26;101991.00;5103960;28;20056;-60
2022/03/17 03:19:53;;;;;;;16.92;11.18;;;;;;;12.22;65.75;101996.59;5102960;28;20048;-60
2022/03/17 03:22:21;;;;;;;16.05;11.65;;;;;;;12.20;65.64;102004.88;5101011;28;20139;-59
2022/03/17 03:24:49;;;;;;;14.77;10.27;;;;;;;12.18;66.21;102011.50;5103169;28;20047;-59
2022/03/17 03:27:16;;;;;;;14.10;10.15;;;;;;;12.16;66.09;102005.50;5099372;28;20062;-60
2022/03/17 03:29:44;;;;;;;13.95;9.80;;;;;;;12.15;66.21;102020.00;5102523;28;20112;-59
2022/03/17 03:32:13;;;;;;;10.63;7.90;;;;;;;12.14;66.36;102021.84;5099556;28;20407;-59
2022/03/17 03:34:41;;;;;;;11.93;8.80;;;;;;;12.15;66.20;102033.47;5102842;28;20127;-60
2022/03/17 03:37:23;;;;;;;11.02;8.02;;;;;;;12.12;66.53;102036.59;5102869;28;20047;-60
2022/03/17 03:39:52;;;;;;;10.32;7.45;;;;;;;12.11;66.21;102037.63;5096569;28;20083;-60
2022/03/17 03:42:20;;;;;;;11.30;8.38;;;;;;;12.10;65.87;102044.88;5101096;28;20075;-60
2022/03/17 03:44:48;;;;;;;9.23;7.25;;;;;;;12.09;65.93;102055.88;5102943;28;20112;-60
2022/03/17 03:47:18;;;;;;;10.70;8.32;;;;;;;12.08;66.16;102062.28;5103488;28;20094;-60
2022/03/17 03:49:46;;;;;;;11.40;8.07;;;;;;;12.05;66.04;102068.91;5101481;28;20052;-59
2022/03/17 03:52:14;;;;;;;10.05;8.45;;;;;;;12.04;66.05;102076.16;5093643;28;20047;-59
2022/03/17 03:54:42;;;;;;;12.95;9.07;;;;;;;12.03;65.87;102092.53;5100227;28;20075;-60
2022/03/17 03:57:10;;;;;;;9.98;8.15;;;;;;;12.01;65.96;102097.28;5095645;28;20086;-59
2022/03/17 03:59:38;;;;;;;13.13;9.43;;;;;;;11.99;66.20;102096.66;5102803;28;20063;-61
2022/03/17 04:02:08;;;;;;;14.93;9.32;;;;;;;11.96;66.12;102097.06;5095345;28;20070;-59
2022/03/17 04:04:39;;;;;;;13.80;10.02;;;;;;;11.90;66.19;102112.16;5102579;28;20051;-59
2022/03/17 04:07:09;;;;;;;12.18;9.82;;;;;;;11.82;66.49;102106.09;5101987;28;20069;-59
2022/03/17 04:09:39;;;;;;;15.63;11.30;;;;;;;11.88;66.53;102127.69;5094050;28;20055;-60
2022/03/17 04:12:09;;;;;;;12.15;9.45;;;;;;;11.83;66.56;102140.09;5101295;28;20054;-61
2022/03/17 04:14:38;;;;;;;13.65;10.00;;;;;;;11.84;66.54;102152.53;5102222;28;20066;-59
2022/03/17 04:17:06;;;;;;;13.10;9.60;;;;;;;11.72;66.28;102153.06;5102603;28;20079;-59
2022/03/17 04:19:34;;;;;;;11.63;9.40;;;;;;;11.77;66.19;102176.72;5099286;28;20115;-59
2022/03/17 04:22:04;;;;;;;12.35;9.15;;;;;;;11.78;66.08;102167.63;5102452;28;20071;-60
2022/03/17 04:24:32;;;;;;;12.85;9.15;;;;;;;11.84;65.80;102182.16;5095430;28;20438;-60
2022/03/17 04:26:59;;;;;;;15.68;9.65;;;;;;;11.82;65.88;102184.22;5100941;28;20075;-60
2022/03/17 04:29:28;;;;;;;11.07;8.70;;;;;;;11.80;65.83;102200.59;5100832;28;20094;-59
2022/03/17 04:31:55;;;;;;;13.35;8.95;;;;;;;11.77;65.76;102209.06;5103095;28;20083;-59
2022/03/17 04:34:23;;;;;;;12.55;8.57;;;;;;;11.74;65.83;102210.25;5096523;28;20072;-59
2022/03/17 04:36:51;;;;;;;14.32;8.82;;;;;;;11.76;65.57;102217.31;5100972;28;20048;-59
2022/03/17 04:39:20;;;;;;;12.90;8.68;;;;;;;11.74;65.62;102226.41;5103605;28;20083;-60
2022/03/17 04:41:48;;;;;;;11.85;8.45;;;;;;;11.74;65.43;102222.88;5105053;28;20048;-60
2022/03/17 04:44:15;;;;;;;13.48;8.45;;;;;;;11.74;65.43;102236.34;5106076;28;20087;-60
2022/03/17 04:46:46;;;;;;;11.63;7.93;;;;;;;11.74;65.36;102252.50;5106142;28;20052;-60
2022/03/17 04:49:14;;;;;;;15.18;8.57;;;;;;;11.74;65.38;102260.59;5105125;28;20098;-60
2022/03/17 04:51:42;;;;;;;10.52;7.75;;;;;;;11.69;65.17;102260.34;5105037;28;20044;-60
2022/03/17 04:54:08;;;;;;;14.63;8.38;;;;;;;11.66;65.24;102263.41;5105567;28;20048;-60
2022/03/17 04:56:37;;;;;;;13.18;8.60;;;;;;;11.63;65.29;102278.09;5105065;28;20051;-60
2022/03/17 04:59:05;;;;;;;14.43;8.90;;;;;;;11.61;64.92;102287.41;5103099;28;20075;-60
2022/03/17 05:01:33;;;;;;;10.50;6.40;;;;;;;11.59;64.76;102290.28;5106524;28;20082;-60
2022/03/17 05:04:01;;;;;;;15.50;8.18;;;;;;;11.61;64.68;102306.25;5102781;28;20051;-59
2022/03/17 05:06:29;;;;;;;15.60;7.40;;;;;;;11.57;64.34;102313.88;5102266;28;20052;-61
2022/03/17 05:08:59;;;;;;;14.65;7.55;;;;;;;11.55;64.28;102315.09;5100005;28;20063;-60
2022/03/17 05:11:27;;;;;;;13.38;7.00;;;;;;;11.56;64.02;102325.69;5099180;28;20052;-59
2022/03/17 05:13:56;;;;;;;14.88;5.55;;;;;;;11.50;63.44;102337.22;5100293;28;20079;-59
2022/03/17 05:16:23;;;;;;;9.50;5.05;;;;;;;11.48;63.08;102350.03;5103706;28;20048;-59
2022/03/17 05:18:52;;;;;;;9.50;4.85;;;;;;;11.45;62.82;102355.81;5102340;28;20048;-58
2022/03/17 05:21:20;;;;;;;12.48;4.75;;;;;;;11.43;62.63;102362.41;5101697;28;20076;-61
2022/03/17 05:23:48;;;;;;;13.73;4.60;;;;;;;11.28;62.10;102349.81;5104893;28;20048;-59
2022/03/17 05:26:15;;;;;;;10.40;3.70;;;;;;;11.40;61.99;102369.00;5100182;28;20051;-59
2022/03/17 05:28:43;;;;;;;12.98;3.40;;;;;;;11.37;61.62;102366.69;5101098;28;20075;-59
2022/03/17 05:31:13;;;;;;;8.43;3.53;;;;;;;11.34;61.33;102377.84;5104183;28;20050;-60
2022/03/17 05:33:41;;;;;;;14.07;3.25;;;;;;;11.33;60.84;102379.69;5104271;28;20059;-59
2022/03/17 05:36:09;;;;;;;9.43;3.33;;;;;;;11.32;60.96;102390.66;5101362;28;20098;-59
2022/03/17 05:38:37;;;;;;;10.25;3.60;;;;;;;11.31;60.64;102399.75;5103885;28;20079;-59
2022/03/17 05:41:05;;;;;;;11.02;2.90;;;;;;;11.28;60.67;102397.44;5102564;28;20080;-60
2022/03/17 05:43:33;;;;;;;9.88;2.90;;;;;;;11.23;60.00;102400.69;5099880;28;20529;-59
2022/03/17 05:46:01;;;;;;;8.40;3.38;;;;;;;11.21;60.01;102413.50;5097485;28;20052;-59
2022/03/17 05:48:30;;;;;;;5.45;2.30;;;;;;;11.21;59.96;102420.72;5101837;28;20044;-58
2022/03/17 05:50:58;;;;;;;12.77;3.13;;;;;;;11.23;59.92;102429.44;5101363;28;20155;-60
2022/03/17 05:53:25;;;;;;;9.52;3.33;;;;;;;11.19;59.65;102439.75;5104790;28;20163;-60
2022/03/17 05:55:53;;;;;;;7.35;2.47;;;;;;;11.17;59.38;102428.34;5104262;28;20086;-60
2022/03/17 05:58:21;;;;;;;5.45;2.10;;;;;;;11.17;59.71;102435.59;5101027;28;20040;-60
2022/03/17 06:00:49;;;;;;;10.35;3.03;;;;;;;11.17;59.33;102452.56;5105164;28;20072;-60
2022/03/17 06:03:17;;;;;;;10.30;2.65;;;;;;;11.14;59.57;102452.94;5101710;28;20044;-60
2022/03/17 06:05:46;;;;;;;10.35;2.50;;;;;;;11.14;59.36;102461.00;5104621;28;20055;-59
2022/03/17 06:08:14;;;;;;;8.95;2.63;;;;;;;11.12;59.62;102467.59;5103385;28;20048;-60
2022/03/17 06:10:42;;;;;;;7.55;2.20;;;;;;;11.09;59.55;102483.09;5102561;28;20071;-59
2022/03/17 06:13:09;;;;;;;7.55;2.20;;;;;;;11.11;59.59;102490.97;5101531;28;20120;-60
2022/03/17 06:15:37;;;;;;;7.85;2.75;;;;;;;11.09;59.75;102491.16;5099232;28;20516;-60
2022/03/17 06:18:06;;;;;;;9.18;3.03;;;;;;;11.04;60.05;102498.94;5099875;28;20099;-61
2022/03/17 06:20:36;;;;;;;12.18;2.47;;;;;;;11.02;60.08;102506.38;5096892;28;20105;-61
2022/03/17 06:23:07;;;;;;;8.18;2.60;;;;;;;10.98;60.46;102506.91;5102329;28;20044;-60
2022/03/17 06:25:36;;;;;;;5.82;1.88;;;;;;;10.99;60.24;102519.34;5103330;28;20075;-60
2022/03/17 06:28:07;;;;;;;9.68;2.83;;;;;;;11.04;60.37;102533.94;5104644;28;20051;-61
2022/03/17 06:30:36;;;;;;;5.40;2.10;;;;;;;11.05;60.73;102538.28;5102539;28;20048;-59
2022/03/17 06:33:06;;;;;;;9.13;2.80;;;;;;;11.06;60.79;102539.13;5104430;28;20048;-60
2022/03/17 06:35:34;;;;;;;8.15;2.47;;;;;;;10.99;60.98;102536.34;5103708;28;20052;-69
2022/03/17 06:38:04;;;;;;;8.90;2.88;;;;;;;11.06;60.92;102547.19;5097772;28;20052;-64
2022/03/17 06:40:35;;;;;;;6.13;1.98;;;;;;;11.05;61.11;102551.75;4737829;28;10000535;-60
2022/03/17 06:43:02;;;;;;;7.65;1.90;;;;;;;11.05;61.04;102561.66;5100919;28;20094;-62
2022/03/17 06:45:31;;;;;;;6.90;2.47;;;;;;;11.04;61.05;102566.22;5100540;28;20055;-61
2022/03/17 06:47:59;;;;;;;7.55;2.53;;;;;;;11.04;60.98;102579.66;5097154;28;20590;-62
2022/03/17 06:50:27;;;;;;;10.98;2.60;;;;;;;11.03;61.22;102580.69;5115795;28;20094;-61
2022/03/17 06:52:55;;;;;;;8.82;2.42;;;;;;;11.02;61.05;102586.25;5107564;28;20499;-60
2022/03/17 06:55:23;;;;;;;9.95;2.55;;;;;;;11.03;60.93;102591.44;5099891;28;20056;-60
2022/03/17 06:57:52;;;;;;;9.95;3.65;;;;;;;11.03;61.09;102598.69;5099760;28;20075;-59
2022/03/17 07:00:21;;;;;;;8.10;2.45;;;;;;;11.03;60.85;102602.22;5098069;28;20163;-59
2022/03/17 07:02:49;;;;;;;8.38;2.22;;;;;;;11.01;60.87;102604.25;5098818;28;20060;-62
2022/03/17 07:05:17;;;;;;;11.65;2.22;;;;;;;10.99;60.82;102608.13;5099203;28;20040;-60
2022/03/17 07:07:45;;;;;;;9.27;2.25;;;;;;;11.01;61.14;102616.88;5097660;28;20059;-59
2022/03/17 07:10:15;;;;;;;7.03;2.42;;;;;;;11.01;60.71;102620.38;5099394;28;20048;-59
2022/03/17 07:12:46;;;;;;;6.50;2.13;;;;;;;10.99;60.51;102637.72;5091962;28;20056;-60
2022/03/17 07:15:15;;;;;;;8.50;2.42;;;;;;;10.93;60.43;102630.38;4744994;28;10000177;-61
2022/03/17 07:17:43;;;;;;;11.48;2.30;;;;;;;10.84;60.90;102634.16;5102621;28;20048;-61
2022/03/17 07:20:13;;;;;;;12.18;2.63;;;;;;;10.87;60.74;102631.94;5102655;28;20096;-61
2022/03/17 07:22:42;;;;;;;8.32;2.20;;;;;;;10.87;60.38;102652.63;5099996;28;20044;-60
2022/03/17 07:25:11;;;;;;;10.52;2.20;;;;;;;10.84;60.28;102650.28;5103664;28;20075;-61
2022/03/17 07:27:40;;;;;;;11.30;2.78;;;;;;;10.85;60.12;102657.34;5104305;28;20083;-60
2022/03/17 07:30:09;;;;;;;7.85;2.10;;;;;;;10.85;60.04;102670.78;5098805;28;20058;-60
2022/03/17 07:32:39;;;;;;;13.60;2.72;;;;;;;10.84;60.36;102675.31;5099129;28;20420;-61
2022/03/17 07:35:08;;;;;;;11.95;3.53;;;;;;;10.87;60.33;102680.34;5103283;28;20090;-60
2022/03/17 07:37:36;;;;;;;10.85;2.60;;;;;;;10.73;59.99;102679.28;5103232;28;20416;-60
2022/03/17 07:40:04;;;;;;;8.73;3.05;;;;;;;10.76;59.85;102694.22;5101832;28;20051;-61
2022/03/17 07:42:32;;;;;;;9.10;2.13;;;;;;;10.69;59.66;102696.78;5103494;28;20121;-61
2022/03/17 07:45:00;;;;;;;8.10;2.20;;;;;;;10.69;59.46;102701.31;5098982;28;20068;-65
2022/03/17 07:47:28;;;;;;;6.75;2.30;;;;;;;10.71;59.44;102702.81;5102239;28;20075;-60
2022/03/17 07:49:58;;;;;;;6.43;1.77;;;;;;;10.71;59.39;102704.66;5101531;28;20082;-60
2022/03/17 07:52:26;;;;;;;7.03;1.73;;;;;;;10.75;59.19;102711.38;5100460;28;20052;-60
2022/03/17 07:54:54;;;;;;;10.88;2.22;;;;;;;10.69;58.69;102712.91;5103219;28;20044;-60
2022/03/17 07:57:21;;;;;;;10.63;2.45;;;;;;;10.69;58.92;102717.44;5099174;28;20465;-59
2022/03/17 07:59:50;;;;;;;10.13;1.90;;;;;;;10.64;58.80;102728.72;5103121;28;20055;-59
2022/03/17 08:02:19;;;;;;;7.57;2.35;;;;;;;10.62;59.09;102741.50;5094591;28;20055;-59
2022/03/17 08:04:50;;;;;;;6.43;1.95;;;;;;;10.57;58.99;102740.38;5103054;28;20048;-59
2022/03/17 08:07:19;;;;;;;11.25;2.10;;;;;;;10.59;58.94;102735.66;5102610;28;20085;-58
2022/03/17 08:09:47;;;;;;;5.88;2.13;;;;;;;10.59;59.07;102741.03;5103259;28;20074;-58
2022/03/17 08:12:15;;;;;;;9.10;1.90;;;;;;;10.53;58.80;102750.63;5098067;28;20059;-59
2022/03/17 08:14:42;;;;;;;8.88;1.90;;;;;;;10.48;58.62;102744.94;5098600;28;20052;-58
2022/03/17 08:17:10;;;;;;;8.93;2.10;;;;;;;10.49;58.40;102757.38;5100183;28;20108;-57
2022/03/17 08:19:38;;;;;;;9.07;1.90;;;;;;;10.48;58.50;102757.53;5099693;28;20063;-60
2022/03/17 08:22:06;;;;;;;10.23;2.17;;;;;;;10.51;58.29;102763.41;5101245;28;20076;-58
2022/03/17 08:24:35;;;;;;;7.97;1.90;;;;;;;10.52;57.96;102767.78;5102101;28;20044;-59
2022/03/17 08:27:03;;;;;;;7.35;1.75;;;;;;;10.55;58.00;102772.81;5102205;28;20059;-59
2022/03/17 08:29:31;;;;;;;7.90;1.75;;;;;;;10.55;57.46;102778.19;5098018;28;20474;-58
2022/03/17 08:31:59;;;;;;;8.15;1.90;;;;;;;10.51;57.16;102789.47;5101475;28;20080;-58
2022/03/17 08:34:27;;;;;;;8.93;1.77;;;;;;;10.46;57.33;102802.56;5099359;28;20055;-59
2022/03/17 08:36:56;;;;;;;13.40;2.25;;;;;;;10.42;57.30;102794.88;5101153;28;20440;-59
2022/03/17 08:39:24;;;;;;;11.52;1.95;;;;;;;10.39;57.50;102797.09;5099880;28;20102;-59
2022/03/17 08:41:53;;;;;;;8.18;2.63;;;;;;;10.44;57.28;102819.72;5098021;28;20048;-59
2022/03/17 08:44:21;;;;;;;11.93;2.80;;;;;;;10.44;57.08;102813.50;5099803;28;20060;-58
2022/03/17 08:49:34;;;;;;;8.05;1.65;;;;;;;10.43;56.18;102838.72;5101893;28;20044;-58
2022/03/17 08:52:04;;;;;;;9.23;2.10;;;;;;;10.37;54.91;102834.88;5097545;28;20158;-57
2022/03/17 08:54:33;;;;;;;9.18;1.90;;;;;;;10.40;54.52;102834.50;5102120;28;20078;-58
2022/03/17 08:57:04;;;;;;;11.38;2.53;;;;;;;10.30;54.78;102833.91;5099993;28;20075;-58
2022/03/17 08:59:34;;;;;;;9.25;1.90;;;;;;;10.46;54.25;102845.59;5100769;28;20036;-58
2022/03/17 09:02:06;;;;;;;11.77;2.38;;;;;;;10.47;54.69;102850.78;5100161;28;20040;-58
2022/03/17 09:04:35;;;;;;;12.02;1.77;;;;;;;10.48;54.34;102835.50;5102559;28;20055;-58
2022/03/17 09:07:03;;;;;;;6.88;1.55;;;;;;;10.53;54.00;102847.41;5099330;28;20044;-58
2022/03/17 09:09:33;;;;;;;15.20;2.42;;;;;;;10.44;53.72;102861.88;5099257;28;20055;-59
2022/03/17 09:12:05;;;;;;;9.70;2.55;;;;;;;10.38;53.79;102847.31;5100375;28;20463;-59
2022/03/17 09:14:33;;;;;;;8.90;1.63;;;;;;;10.48;54.03;102863.22;5101655;28;20040;-56
2022/03/17 09:17:02;;;;;;;15.45;1.70;;;;;;;10.49;53.85;102856.84;5103825;28;20078;-58
2022/03/17 09:19:31;;;;;;;11.70;2.08;;;;;;;10.57;54.27;102866.72;5099405;28;20043;-58
2022/03/17 09:21:59;;;;;;;9.27;1.70;;;;;;;10.54;53.83;102872.44;5099122;28;20044;-58
2022/03/17 09:24:30;;;;;;;12.65;2.55;;;;;;;10.52;53.99;102879.84;5097871;28;20066;-59
2022/03/17 09:26:58;;;;;;;7.95;2.08;;;;;;;10.47;53.49;102880.38;5095869;28;20051;-57
2022/03/17 09:29:28;;;;;;;9.82;2.25;;;;;;;10.38;54.10;102884.94;5097260;28;20055;-58
2022/03/17 09:31:58;;;;;;;11.95;1.90;;;;;;;10.41;53.98;102887.25;5105575;28;20070;-57
2022/03/17 09:34:26;;;;;;;12.25;2.30;;;;;;;10.41;53.91;102889.13;5101335;28;20153;-56
2022/03/17 09:36:54;;;;;;;12.48;3.28;;;;;;;10.42;54.03;102897.00;5104091;28;20113;-57
2022/03/17 09:42:07;;;;;;;7.85;2.00;;;;;;;10.49;53.91;102907.91;5096657;28;20063;-57
2022/03/17 09:44:37;;;;;;;13.48;1.85;;;;;;;10.44;53.79;102913.81;5095866;28;20072;-58
2022/03/17 09:47:09;;;;;;;12.10;2.63;;;;;;;10.44;54.17;102915.66;5096353;28;20044;-57
2022/03/17 09:49:37;;;;;;;12.30;1.75;;;;;;;10.43;53.85;102920.19;5095499;28;20515;-57
2022/03/17 09:52:12;;;;;;;9.38;1.85;;;;;;;10.39;53.99;102920.72;5091739;28;20081;-58
2022/03/17 09:54:40;;;;;;;9.00;1.90;;;;;;;10.36;53.79;102921.91;5095670;28;20082;-58
2022/03/17 09:57:08;;;;;;;13.20;2.65;;;;;;;10.32;53.73;102931.31;5094387;28;20099;-58
2022/03/17 09:59:37;;;;;;;14.02;1.65;;;;;;;10.32;54.03;102938.53;5096414;28;20048;-58
2022/03/17 10:02:06;;;;;;;16.23;2.10;;;;;;;10.33;53.86;102938.38;5094849;28;20079;-58
2022/03/17 10:04:36;;;;;;;10.70;2.15;;;;;;;10.29;53.96;102941.56;5094930;28;20070;-58
2022/03/17 10:07:04;;;;;;;10.43;1.80;;;;;;;10.39;54.19;102951.13;5094650;28;20095;-58
2022/03/17 10:09:32;;;;;;;9.38;2.25;;;;;;;10.46;53.57;102955.81;5095363;28;20055;-59
2022/03/17 10:12:04;;;;;;;9.55;1.67;;;;;;;10.42;54.01;102963.38;5095821;28;20056;-58
2022/03/17 10:14:41;;;;;;;11.38;1.83;;;;;;;10.37;53.60;102966.59;5093136;28;20072;-59
2022/03/17 10:17:29;;;;;;;9.77;2.33;;;;;;;10.36;54.02;102966.75;5096516;28;20089;-59
2022/03/17 10:20:12;;;;;;;11.77;1.90;;;;;;;10.36;54.27;102967.59;5092497;28;20070;-58
2022/03/17 10:22:42;;;;;;;7.82;1.70;;;;;;;10.33;54.40;102964.41;5096247;28;20051;-58
2022/03/17 10:25:10;;;;;;;12.40;2.47;;;;;;;10.38;54.35;102976.34;5094650;28;20056;-56
2022/03/17 10:27:40;;;;;;;10.15;1.73;;;;;;;10.42;54.57;102977.66;5096143;28;20082;-57
2022/03/17 10:30:10;;;;;;;11.70;3.03;;;;;;;10.42;54.12;102979.50;5093967;28;20044;-56
2022/03/17 10:32:38;;;;;;;11.20;2.20;;;;;;;10.44;54.23;102980.16;5097366;28;20044;-57
2022/03/17 10:35:08;;;;;;;10.98;1.98;;;;;;;10.49;54.62;102985.03;5093702;28;20185;-57
2022/03/17 10:37:37;;;;;;;8.73;2.35;;;;;;;10.50;54.37;102998.31;5096021;28;20045;-57
2022/03/17 10:40:11;;;;;;;8.13;2.30;;;;;;;10.53;54.79;103003.34;5095323;28;20059;-56
2022/03/17 10:42:39;;;;;;;17.30;3.17;;;;;;;10.52;54.32;103003.53;5095111;28;20094;-57
2022/03/17 10:45:10;;;;;;;10.48;1.63;;;;;;;10.54;54.81;103002.34;5092569;28;20044;-58
2022/03/17 10:47:40;;;;;;;10.98;2.08;;;;;;;10.50;54.89;103006.38;5096341;28;20055;-58
2022/03/17 10:50:11;;;;;;;11.93;3.35;;;;;;;10.52;54.76;103009.75;5095372;28;20044;-58
2022/03/17 10:52:51;;;;;;;10.95;1.80;;;;;;;10.48;54.19;103010.25;5095087;28;20444;-57
2022/03/17 10:55:24;;;;;;;4.47;1.67;;;;;;;10.47;54.76;103025.53;5094018;28;20047;-58
2022/03/17 10:57:55;;;;;;;7.93;1.80;;;;;;;10.39;53.51;103017.50;5093093;28;20040;-58
2022/03/17 11:00:26;;;;;;;8.15;2.70;;;;;;;10.39;53.77;103037.16;5095223;28;20059;-57
2022/03/17 11:02:57;;;;;;;11.13;2.50;;;;;;;10.41;53.85;103045.03;5093592;28;20148;-57
2022/03/17 11:05:28;;;;;;;18.10;3.38;;;;;;;10.46;54.33;103053.44;5093641;28;20385;-57
2022/03/17 11:07:57;;;;;;;12.07;2.00;;;;;;;10.45;54.05;103035.63;5092656;28;20037;-58
2022/03/17 11:10:26;;;;;;;13.05;2.08;;;;;;;10.55;53.76;103041.66;5097213;28;20044;-57
2022/03/17 11:12:54;;;;;;;8.55;2.33;;;;;;;10.57;54.09;103050.41;5097500;28;20064;-58
2022/03/17 11:15:29;;;;;;;12.35;3.25;;;;;;;10.58;53.92;103062.00;5103266;28;20063;-58
2022/03/17 11:18:03;;;;;;;12.48;2.25;;;;;;;10.49;53.42;103052.25;5103706;28;20048;-58
2022/03/17 11:20:32;;;;;;;13.77;2.40;;;;;;;10.43;54.05;103062.66;5103632;28;20048;-58
2022/03/17 11:23:19;;;;;;;11.43;3.00;;;;;;;10.41;53.79;103069.22;5090391;28;20448;-58
2022/03/17 11:25:54;;;;;;;6.30;2.25;;;;;;;10.36;53.16;103067.06;5103961;28;20048;-58
2022/03/17 11:28:33;;;;;;;10.07;1.80;;;;;;;10.34;52.90;103070.91;5092027;28;20544;-58
2022/03/17 11:31:04;;;;;;;8.75;1.83;;;;;;;10.32;53.23;103067.56;5103694;28;20063;-57
2022/03/17 11:33:34;;;;;;;12.77;2.63;;;;;;;10.37;52.91;103082.19;5104093;28;20048;-58
2022/03/17 11:36:11;;;;;;;8.30;1.95;;;;;;;10.38;52.99;103089.22;5096706;28;20111;-58
2022/03/17 11:38:41;;;;;;;7.50;1.63;;;;;;;10.35;52.62;103096.78;5102988;28;20471;-59
2022/03/17 11:41:13;;;;;;;14.52;2.25;;;;;;;10.32;52.43;103091.75;5091403;28;20058;-58
2022/03/17 11:43:42;;;;;;;11.75;2.20;;;;;;;10.27;52.20;103084.16;5102862;28;20048;-58